sensor_id;sensor_type;location;lat;lon;timestamp;pressure;altitude;pressure_sealevel;temperature;humidity
39051;BME280;24805;55.852;37.644;2023-03-01T00:00:48;98524.22;;;-3.03;47.48
39051;BME280;24805;55.852;37.644;2023-03-01T00:05:50;98513.84;;;-3.03;47.48
39051;BME280;24805;55.852;37.644;2023-03-01T00:11:06;98510.88;;;-2.99;48.28
39051;BME280;24805;55.852;37.644;2023-03-01T00:16:11;98505.91;;;-3.13;48.01
39051;BME280;24805;55.852;37.644;2023-03-01T00:21:14;98493.88;;;-3.14;47.67
39051;BME280;24805;55.852;37.644;2023-03-01T00:26:18;98500.34;;;-3.20;47.69
39051;BME280;24805;55.852;37.644;2023-03-01T00:31:22;98506.38;;;-3.19;47.39
39051;BME280;24805;55.852;37.644;2023-03-01T00:36:26;98505.91;;;-3.24;47.75
39051;BME280;24805;55.852;37.644;2023-03-01T00:41:30;98510.72;;;-3.31;47.71
39051;BME280;24805;55.852;37.644;2023-03-01T00:46:32;98500.69;;;-3.35;47.62
39051;BME280;24805;55.852;37.644;2023-03-01T00:51:36;98506.38;;;-3.30;48.62
39051;BME280;24805;55.852;37.644;2023-03-01T00:56:38;98491.84;;;-3.44;47.72
39051;BME280;24805;55.852;37.644;2023-03-01T01:01:40;98494.44;;;-3.44;48.10
39051;BME280;24805;55.852;37.644;2023-03-01T01:06:46;98490.69;;;-3.40;48.48
39051;BME280;24805;55.852;37.644;2023-03-01T01:11:50;98484.19;;;-3.45;48.03
39051;BME280;24805;55.852;37.644;2023-03-01T01:16:53;98502.66;;;-3.50;48.44
39051;BME280;24805;55.852;37.644;2023-03-01T01:21:57;98491.69;;;-3.54;48.29
39051;BME280;24805;55.852;37.644;2023-03-01T01:26:59;98490.63;;;-3.62;48.62
39051;BME280;24805;55.852;37.644;2023-03-01T01:32:01;98501.56;;;-3.59;48.47
39051;BME280;24805;55.852;37.644;2023-03-01T01:37:04;98503.13;;;-3.56;48.72
39051;BME280;24805;55.852;37.644;2023-03-01T01:42:17;98519.88;;;-3.49;49.12
39051;BME280;24805;55.852;37.644;2023-03-01T01:47:22;98506.69;;;-3.46;48.55
39051;BME280;24805;55.852;37.644;2023-03-01T01:52:28;98493.03;;;-3.37;48.37
39051;BME280;24805;55.852;37.644;2023-03-01T01:57:40;98495.28;;;-3.32;48.53
39051;BME280;24805;55.852;37.644;2023-03-01T02:02:46;98513.31;;;-3.31;47.70
39051;BME280;24805;55.852;37.644;2023-03-01T02:07:49;98500.78;;;-3.48;47.78
39051;BME280;24805;55.852;37.644;2023-03-01T02:12:54;98493.94;;;-3.60;48.73
39051;BME280;24805;55.852;37.644;2023-03-01T02:18:19;98509.00;;;-3.65;47.75
39051;BME280;24805;55.852;37.644;2023-03-01T02:23:23;98505.53;;;-3.77;48.73
39051;BME280;24805;55.852;37.644;2023-03-01T02:28:33;98506.34;;;-3.76;48.84
39051;BME280;24805;55.852;37.644;2023-03-01T02:33:38;98510.91;;;-3.91;48.84
39051;BME280;24805;55.852;37.644;2023-03-01T02:38:42;98503.56;;;-3.97;49.41
39051;BME280;24805;55.852;37.644;2023-03-01T02:43:45;98510.13;;;-4.04;49.38
39051;BME280;24805;55.852;37.644;2023-03-01T02:48:56;98511.41;;;-4.10;49.54
39051;BME280;24805;55.852;37.644;2023-03-01T02:59:31;98529.97;;;-4.16;50.10
39051;BME280;24805;55.852;37.644;2023-03-01T03:04:41;98495.22;;;-4.37;49.97
39051;BME280;24805;55.852;37.644;2023-03-01T03:09:44;98534.16;;;-4.26;50.37
39051;BME280;24805;55.852;37.644;2023-03-01T03:14:47;98523.50;;;-4.34;49.60
39051;BME280;24805;55.852;37.644;2023-03-01T03:19:49;98530.91;;;-4.41;50.46
39051;BME280;24805;55.852;37.644;2023-03-01T03:24:51;98535.34;;;-4.43;49.97
39051;BME280;24805;55.852;37.644;2023-03-01T03:29:53;98531.41;;;-4.48;50.34
39051;BME280;24805;55.852;37.644;2023-03-01T03:34:55;98536.09;;;-4.54;50.53
39051;BME280;24805;55.852;37.644;2023-03-01T03:39:57;98538.16;;;-4.59;50.80
39051;BME280;24805;55.852;37.644;2023-03-01T03:45:00;98546.16;;;-4.62;50.86
39051;BME280;24805;55.852;37.644;2023-03-01T03:50:03;98539.75;;;-4.69;51.16
39051;BME280;24805;55.852;37.644;2023-03-01T03:55:07;98539.44;;;-4.64;51.21
39051;BME280;24805;55.852;37.644;2023-03-01T04:00:13;98542.22;;;-4.67;51.38
39051;BME280;24805;55.852;37.644;2023-03-01T04:05:17;98547.50;;;-4.69;51.67
39051;BME280;24805;55.852;37.644;2023-03-01T04:10:20;98531.91;;;-4.80;51.46
39051;BME280;24805;55.852;37.644;2023-03-01T04:15:23;98554.13;;;-4.65;51.21
39051;BME280;24805;55.852;37.644;2023-03-01T04:20:28;98556.63;;;-4.63;51.30
39051;BME280;24805;55.852;37.644;2023-03-01T04:25:30;98563.13;;;-4.58;52.07
39051;BME280;24805;55.852;37.644;2023-03-01T04:30:32;98551.81;;;-4.57;51.36
39051;BME280;24805;55.852;37.644;2023-03-01T04:35:38;98570.47;;;-4.52;51.90
39051;BME280;24805;55.852;37.644;2023-03-01T04:40:40;98564.88;;;-4.45;51.48
39051;BME280;24805;55.852;37.644;2023-03-01T04:45:44;98554.97;;;-4.28;51.60
39051;BME280;24805;55.852;37.644;2023-03-01T04:50:47;98564.56;;;-3.80;50.99
39051;BME280;24805;55.852;37.644;2023-03-01T04:55:49;98566.97;;;-3.66;50.30
39051;BME280;24805;55.852;37.644;2023-03-01T05:00:51;98558.78;;;-3.73;50.32
39051;BME280;24805;55.852;37.644;2023-03-01T05:05:53;98559.84;;;-3.75;50.46
39051;BME280;24805;55.852;37.644;2023-03-01T05:10:55;98582.22;;;-3.74;50.33
39051;BME280;24805;55.852;37.644;2023-03-01T05:16:00;98574.94;;;-3.45;49.85
39051;BME280;24805;55.852;37.644;2023-03-01T05:21:14;98587.72;;;-2.63;49.61
39051;BME280;24805;55.852;37.644;2023-03-01T05:26:20;98590.38;;;-1.22;47.16
39051;BME280;24805;55.852;37.644;2023-03-01T05:31:29;98591.69;;;-0.56;45.02
39051;BME280;24805;55.852;37.644;2023-03-01T05:36:32;98589.00;;;-0.75;44.33
39051;BME280;24805;55.852;37.644;2023-03-01T05:41:34;98585.59;;;-1.17;45.61
39051;BME280;24805;55.852;37.644;2023-03-01T05:46:36;98611.22;;;-1.65;46.04
39051;BME280;24805;55.852;37.644;2023-03-01T05:51:39;98620.13;;;-1.90;45.61
39051;BME280;24805;55.852;37.644;2023-03-01T05:56:42;98617.94;;;-2.06;46.73
39051;BME280;24805;55.852;37.644;2023-03-01T06:01:44;98623.97;;;-2.28;47.00
39051;BME280;24805;55.852;37.644;2023-03-01T06:06:46;98623.72;;;-2.25;47.12
39051;BME280;24805;55.852;37.644;2023-03-01T06:11:48;98619.22;;;-2.12;46.92
39051;BME280;24805;55.852;37.644;2023-03-01T06:16:50;98617.50;;;-1.79;46.91
39051;BME280;24805;55.852;37.644;2023-03-01T06:21:53;98624.91;;;-1.20;46.86
39051;BME280;24805;55.852;37.644;2023-03-01T06:26:55;98628.72;;;-0.62;44.60
39051;BME280;24805;55.852;37.644;2023-03-01T06:31:57;98626.59;;;-0.47;44.03
39051;BME280;24805;55.852;37.644;2023-03-01T06:36:59;98639.50;;;-0.36;44.18
39051;BME280;24805;55.852;37.644;2023-03-01T06:42:04;98642.91;;;-0.15;43.96
39051;BME280;24805;55.852;37.644;2023-03-01T06:47:06;98627.97;;;0.47;43.63
39051;BME280;24805;55.852;37.644;2023-03-01T06:52:08;98639.63;;;2.58;40.66
39051;BME280;24805;55.852;37.644;2023-03-01T06:57:11;98649.84;;;3.23;38.59
39051;BME280;24805;55.852;37.644;2023-03-01T07:02:13;98643.75;;;3.66;38.91
39051;BME280;24805;55.852;37.644;2023-03-01T07:07:17;98659.28;;;3.85;38.37
39051;BME280;24805;55.852;37.644;2023-03-01T07:12:19;98658.13;;;3.79;37.52
39051;BME280;24805;55.852;37.644;2023-03-01T07:17:22;98669.00;;;3.93;38.38
39051;BME280;24805;55.852;37.644;2023-03-01T07:22:24;98676.19;;;4.67;37.82
39051;BME280;24805;55.852;37.644;2023-03-01T07:27:26;98686.44;;;5.92;36.42
39051;BME280;24805;55.852;37.644;2023-03-01T07:32:28;98697.69;;;6.64;35.61
39051;BME280;24805;55.852;37.644;2023-03-01T07:37:31;98685.78;;;7.21;34.57
39051;BME280;24805;55.852;37.644;2023-03-01T07:42:32;98694.63;;;8.62;39.06
39051;BME280;24805;55.852;37.644;2023-03-01T07:47:35;98676.59;;;10.07;33.43
39051;BME280;24805;55.852;37.644;2023-03-01T07:52:37;98674.38;;;10.39;31.18
39051;BME280;24805;55.852;37.644;2023-03-01T07:57:39;98681.09;;;9.08;31.98
39051;BME280;24805;55.852;37.644;2023-03-01T08:02:41;98679.06;;;8.09;32.47
39051;BME280;24805;55.852;37.644;2023-03-01T08:07:43;98688.22;;;9.08;45.05
39051;BME280;24805;55.852;37.644;2023-03-01T08:12:45;98683.03;;;9.91;32.77
39051;BME280;24805;55.852;37.644;2023-03-01T08:17:49;98660.09;;;11.07;30.34
39051;BME280;24805;55.852;37.644;2023-03-01T08:22:51;98682.97;;;13.29;28.75
39051;BME280;24805;55.852;37.644;2023-03-01T08:27:53;98694.47;;;15.56;26.98
39051;BME280;24805;55.852;37.644;2023-03-01T08:32:56;98699.25;;;17.10;24.49
39051;BME280;24805;55.852;37.644;2023-03-01T08:37:58;98705.59;;;16.17;24.80
39051;BME280;24805;55.852;37.644;2023-03-01T08:43:00;98703.09;;;15.81;24.30
39051;BME280;24805;55.852;37.644;2023-03-01T08:48:02;98688.34;;;15.67;24.27
39051;BME280;24805;55.852;37.644;2023-03-01T08:53:04;98715.22;;;16.42;23.96
39051;BME280;24805;55.852;37.644;2023-03-01T08:58:06;98711.38;;;17.01;23.64
39051;BME280;24805;55.852;37.644;2023-03-01T09:03:08;98716.88;;;17.51;22.00
39051;BME280;24805;55.852;37.644;2023-03-01T09:08:11;98711.75;;;17.78;22.28
39051;BME280;24805;55.852;37.644;2023-03-01T09:13:13;98706.50;;;17.27;22.00
39051;BME280;24805;55.852;37.644;2023-03-01T09:18:15;98710.84;;;17.61;22.17
39051;BME280;24805;55.852;37.644;2023-03-01T09:23:17;98706.09;;;18.52;20.84
39051;BME280;24805;55.852;37.644;2023-03-01T09:28:19;98708.16;;;17.73;20.71
39051;BME280;24805;55.852;37.644;2023-03-01T09:33:32;98704.84;;;17.09;20.69
39051;BME280;24805;55.852;37.644;2023-03-01T09:38:34;98704.97;;;15.69;21.26
39051;BME280;24805;55.852;37.644;2023-03-01T09:43:46;98703.56;;;16.48;20.56
39051;BME280;24805;55.852;37.644;2023-03-01T09:48:56;98687.31;;;15.38;21.88
39051;BME280;24805;55.852;37.644;2023-03-01T09:54:01;98685.22;;;16.28;21.20
39051;BME280;24805;55.852;37.644;2023-03-01T10:04:24;98708.22;;;16.52;20.28
39051;BME280;24805;55.852;37.644;2023-03-01T10:09:33;98710.72;;;15.24;21.63
39051;BME280;24805;55.852;37.644;2023-03-01T10:30:40;98722.72;;;7.82;28.17
39051;BME280;24805;55.852;37.644;2023-03-01T10:35:44;98723.09;;;6.87;30.24
39051;BME280;24805;55.852;37.644;2023-03-01T10:41:00;98730.34;;;6.94;29.67
39051;BME280;24805;55.852;37.644;2023-03-01T10:51:26;98689.13;;;12.85;24.41
39051;BME280;24805;55.852;37.644;2023-03-01T10:56:28;98720.63;;;14.14;26.59
39051;BME280;24805;55.852;37.644;2023-03-01T11:01:34;98719.31;;;11.08;24.89
39051;BME280;24805;55.852;37.644;2023-03-01T11:06:40;98729.88;;;8.84;26.88
39051;BME280;24805;55.852;37.644;2023-03-01T11:11:42;98715.66;;;6.91;28.85
39051;BME280;24805;55.852;37.644;2023-03-01T11:16:46;98712.72;;;5.83;30.17
39051;BME280;24805;55.852;37.644;2023-03-01T11:27:25;98703.66;;;8.68;27.99
39051;BME280;24805;55.852;37.644;2023-03-01T11:32:34;98727.03;;;8.35;27.80
39051;BME280;24805;55.852;37.644;2023-03-01T11:37:44;98737.72;;;6.98;29.14
39051;BME280;24805;55.852;37.644;2023-03-01T11:48:34;98706.16;;;7.13;30.81
39051;BME280;24805;55.852;37.644;2023-03-01T11:59:25;98733.00;;;5.75;31.15
39051;BME280;24805;55.852;37.644;2023-03-01T12:31:46;98749.66;;;4.84;33.24
39051;BME280;24805;55.852;37.644;2023-03-01T13:19:28;98734.94;;;2.11;35.91
39051;BME280;24805;55.852;37.644;2023-03-01T13:24:41;98735.13;;;1.90;37.42
39051;BME280;24805;55.852;37.644;2023-03-01T13:29:54;98748.38;;;1.69;37.43
39051;BME280;24805;55.852;37.644;2023-03-01T13:45:46;98732.19;;;1.27;38.20
39051;BME280;24805;55.852;37.644;2023-03-01T13:50:53;98731.06;;;1.00;38.76
39051;BME280;24805;55.852;37.644;2023-03-01T13:56:12;98716.38;;;0.90;38.32
39051;BME280;24805;55.852;37.644;2023-03-01T14:01:29;98714.72;;;0.79;39.04
39051;BME280;24805;55.852;37.644;2023-03-01T14:06:33;98731.56;;;0.65;39.40
39051;BME280;24805;55.852;37.644;2023-03-01T14:11:44;98726.75;;;0.61;39.51
39051;BME280;24805;55.852;37.644;2023-03-01T14:27:17;98685.31;;;0.27;40.24
39051;BME280;24805;55.852;37.644;2023-03-01T14:32:24;98703.63;;;0.37;40.63
39051;BME280;24805;55.852;37.644;2023-03-01T14:37:32;98696.31;;;0.31;40.85
39051;BME280;24805;55.852;37.644;2023-03-01T14:42:35;98700.84;;;0.29;40.89
39051;BME280;24805;55.852;37.644;2023-03-01T14:47:38;98697.66;;;0.16;41.74
39051;BME280;24805;55.852;37.644;2023-03-01T14:52:46;98685.03;;;0.21;41.54
39051;BME280;24805;55.852;37.644;2023-03-01T14:57:52;98696.22;;;0.02;42.26
39051;BME280;24805;55.852;37.644;2023-03-01T15:02:56;98701.97;;;-0.04;43.29
39051;BME280;24805;55.852;37.644;2023-03-01T15:08:02;98696.31;;;-0.09;43.47
39051;BME280;24805;55.852;37.644;2023-03-01T15:13:20;98711.97;;;-0.09;43.74
39051;BME280;24805;55.852;37.644;2023-03-01T15:18:26;98699.81;;;-0.20;44.49
39051;BME280;24805;55.852;37.644;2023-03-01T15:23:30;98688.28;;;-0.27;44.54
39051;BME280;24805;55.852;37.644;2023-03-01T15:28:34;98687.47;;;-0.18;44.41
39051;BME280;24805;55.852;37.644;2023-03-01T15:33:37;98698.44;;;-0.24;44.85
39051;BME280;24805;55.852;37.644;2023-03-01T15:38:54;98700.81;;;-0.21;44.52
39051;BME280;24805;55.852;37.644;2023-03-01T15:44:26;98690.19;;;-0.29;44.92
39051;BME280;24805;55.852;37.644;2023-03-01T15:49:43;98685.06;;;-0.40;44.50
39051;BME280;24805;55.852;37.644;2023-03-01T15:55:00;98676.91;;;-0.47;44.50
39051;BME280;24805;55.852;37.644;2023-03-01T16:00:05;98683.72;;;-0.55;44.44
39051;BME280;24805;55.852;37.644;2023-03-01T16:05:22;98681.56;;;-0.50;44.40
39051;BME280;24805;55.852;37.644;2023-03-01T16:10:25;98682.06;;;-0.56;43.84
39051;BME280;24805;55.852;37.644;2023-03-01T16:15:30;98688.91;;;-0.55;44.61
39051;BME280;24805;55.852;37.644;2023-03-01T16:20:34;98683.00;;;-0.57;44.04
39051;BME280;24805;55.852;37.644;2023-03-01T16:25:36;98692.69;;;-0.48;43.91
39051;BME280;24805;55.852;37.644;2023-03-01T16:30:39;98679.44;;;-0.56;44.05
39051;BME280;24805;55.852;37.644;2023-03-01T16:35:41;98683.00;;;-0.57;44.08
39051;BME280;24805;55.852;37.644;2023-03-01T16:40:48;98683.78;;;-0.46;43.71
39051;BME280;24805;55.852;37.644;2023-03-01T16:45:50;98673.28;;;-0.55;44.26
39051;BME280;24805;55.852;37.644;2023-03-01T16:50:57;98675.66;;;-0.52;44.19
39051;BME280;24805;55.852;37.644;2023-03-01T16:56:02;98682.47;;;-0.61;44.69
39051;BME280;24805;55.852;37.644;2023-03-01T17:06:14;98665.84;;;-0.60;45.52
39051;BME280;24805;55.852;37.644;2023-03-01T17:11:19;98665.47;;;-0.55;45.63
39051;BME280;24805;55.852;37.644;2023-03-01T17:16:22;98669.00;;;-0.66;45.83
39051;BME280;24805;55.852;37.644;2023-03-01T17:21:24;98629.84;;;-0.76;45.95
39051;BME280;24805;55.852;37.644;2023-03-01T17:26:26;98654.94;;;-0.75;46.14
39051;BME280;24805;55.852;37.644;2023-03-01T17:31:31;98653.53;;;-0.79;46.40
39051;BME280;24805;55.852;37.644;2023-03-01T17:36:34;98650.09;;;-0.79;46.61
39051;BME280;24805;55.852;37.644;2023-03-01T17:41:42;98647.31;;;-0.87;47.13
39051;BME280;24805;55.852;37.644;2023-03-01T17:46:44;98641.66;;;-0.92;47.14
39051;BME280;24805;55.852;37.644;2023-03-01T17:51:47;98637.03;;;-1.10;47.76
39051;BME280;24805;55.852;37.644;2023-03-01T17:56:49;98637.38;;;-1.14;47.81
39051;BME280;24805;55.852;37.644;2023-03-01T18:01:52;98633.25;;;-1.17;47.73
39051;BME280;24805;55.852;37.644;2023-03-01T18:06:54;98629.53;;;-1.24;48.30
39051;BME280;24805;55.852;37.644;2023-03-01T18:11:56;98638.72;;;-1.20;48.22
39051;BME280;24805;55.852;37.644;2023-03-01T18:16:59;98641.59;;;-1.23;48.73
39051;BME280;24805;55.852;37.644;2023-03-01T18:22:04;98633.66;;;-1.21;48.63
39051;BME280;24805;55.852;37.644;2023-03-01T18:27:07;98628.06;;;-1.17;49.16
39051;BME280;24805;55.852;37.644;2023-03-01T18:32:09;98634.47;;;-1.21;49.06
39051;BME280;24805;55.852;37.644;2023-03-01T18:37:11;98618.03;;;-1.21;49.57
39051;BME280;24805;55.852;37.644;2023-03-01T18:42:13;98628.88;;;-1.16;49.33
39051;BME280;24805;55.852;37.644;2023-03-01T18:47:17;98626.16;;;-1.15;49.72
39051;BME280;24805;55.852;37.644;2023-03-01T18:52:19;98627.69;;;-1.12;50.08
39051;BME280;24805;55.852;37.644;2023-03-01T18:57:21;98622.47;;;-1.12;50.15
39051;BME280;24805;55.852;37.644;2023-03-01T19:02:23;98628.00;;;-1.06;49.92
39051;BME280;24805;55.852;37.644;2023-03-01T19:07:25;98602.47;;;-1.12;50.19
39051;BME280;24805;55.852;37.644;2023-03-01T19:12:27;98609.97;;;-0.97;49.92
39051;BME280;24805;55.852;37.644;2023-03-01T19:17:29;98611.19;;;-1.01;49.95
39051;BME280;24805;55.852;37.644;2023-03-01T19:22:31;98605.88;;;-1.00;50.24
39051;BME280;24805;55.852;37.644;2023-03-01T19:27:34;98607.75;;;-1.02;50.55
39051;BME280;24805;55.852;37.644;2023-03-01T19:32:36;98598.31;;;-1.03;50.27
39051;BME280;24805;55.852;37.644;2023-03-01T19:37:38;98588.00;;;-1.05;50.58
39051;BME280;24805;55.852;37.644;2023-03-01T19:42:40;98584.38;;;-1.13;50.82
39051;BME280;24805;55.852;37.644;2023-03-01T19:47:45;98592.69;;;-1.19;51.19
39051;BME280;24805;55.852;37.644;2023-03-01T19:52:48;98600.13;;;-1.15;50.66
39051;BME280;24805;55.852;37.644;2023-03-01T19:57:50;98587.63;;;-1.21;50.89
39051;BME280;24805;55.852;37.644;2023-03-01T20:02:52;98592.19;;;-1.13;50.57
39051;BME280;24805;55.852;37.644;2023-03-01T20:07:55;98592.06;;;-1.12;51.12
39051;BME280;24805;55.852;37.644;2023-03-01T20:12:58;98587.81;;;-1.13;50.65
39051;BME280;24805;55.852;37.644;2023-03-01T20:18:03;98590.63;;;-1.05;51.24
39051;BME280;24805;55.852;37.644;2023-03-01T20:23:05;98580.06;;;-1.03;51.75
39051;BME280;24805;55.852;37.644;2023-03-01T20:28:07;98571.19;;;-1.00;53.64
39051;BME280;24805;55.852;37.644;2023-03-01T20:33:09;98567.59;;;-0.99;54.59
39051;BME280;24805;55.852;37.644;2023-03-01T20:38:12;98578.09;;;-0.90;55.23
39051;BME280;24805;55.852;37.644;2023-03-01T20:43:14;98570.78;;;-0.96;55.08
39051;BME280;24805;55.852;37.644;2023-03-01T20:48:16;98569.41;;;-1.00;56.06
39051;BME280;24805;55.852;37.644;2023-03-01T20:53:18;98557.41;;;-1.12;56.48
39051;BME280;24805;55.852;37.644;2023-03-01T20:58:20;98522.13;;;-1.26;55.86
39051;BME280;24805;55.852;37.644;2023-03-01T21:03:23;98552.66;;;-1.28;56.77
39051;BME280;24805;55.852;37.644;2023-03-01T21:08:25;98568.81;;;-1.45;57.22
39051;BME280;24805;55.852;37.644;2023-03-01T21:13:28;98569.91;;;-1.59;57.70
39051;BME280;24805;55.852;37.644;2023-03-01T21:18:31;98559.78;;;-1.62;58.04
39051;BME280;24805;55.852;37.644;2023-03-01T21:23:34;98560.22;;;-1.57;58.23
39051;BME280;24805;55.852;37.644;2023-03-01T21:28:37;98556.53;;;-1.43;56.30
39051;BME280;24805;55.852;37.644;2023-03-01T21:33:44;98557.22;;;-1.41;57.42
39051;BME280;24805;55.852;37.644;2023-03-01T21:38:48;98557.00;;;-1.49;57.13
39051;BME280;24805;55.852;37.644;2023-03-01T21:43:53;98528.00;;;-1.65;57.27
39051;BME280;24805;55.852;37.644;2023-03-01T21:48:56;98561.38;;;-1.50;57.33
39051;BME280;24805;55.852;37.644;2023-03-01T21:53:58;98558.78;;;-1.50;58.32
39051;BME280;24805;55.852;37.644;2023-03-01T21:59:02;98555.50;;;-1.31;57.85
39051;BME280;24805;55.852;37.644;2023-03-01T22:04:04;98561.03;;;-1.24;57.15
39051;BME280;24805;55.852;37.644;2023-03-01T22:09:41;98556.81;;;-1.16;56.91
39051;BME280;24805;55.852;37.644;2023-03-01T22:14:36;98562.59;;;-1.12;57.46
39051;BME280;24805;55.852;37.644;2023-03-01T22:19:39;98557.84;;;-1.07;56.71
39051;BME280;24805;55.852;37.644;2023-03-01T22:24:41;98566.75;;;-1.10;57.29
39051;BME280;24805;55.852;37.644;2023-03-01T22:29:43;98557.59;;;-1.04;57.37
39051;BME280;24805;55.852;37.644;2023-03-01T22:34:45;98578.59;;;-0.96;57.17
39051;BME280;24805;55.852;37.644;2023-03-01T22:39:47;98571.94;;;-0.89;56.66
39051;BME280;24805;55.852;37.644;2023-03-01T22:44:49;98579.38;;;-0.84;56.83
39051;BME280;24805;55.852;37.644;2023-03-01T22:49:55;98578.69;;;-0.77;57.39
39051;BME280;24805;55.852;37.644;2023-03-01T22:54:57;98557.16;;;-0.79;56.89
39051;BME280;24805;55.852;37.644;2023-03-01T22:59:59;98574.03;;;-0.83;57.31
39051;BME280;24805;55.852;37.644;2023-03-01T23:05:02;98573.91;;;-0.81;57.06
39051;BME280;24805;55.852;37.644;2023-03-01T23:10:05;98588.25;;;-0.87;57.70
39051;BME280;24805;55.852;37.644;2023-03-01T23:15:08;98594.16;;;-0.85;57.48
39051;BME280;24805;55.852;37.644;2023-03-01T23:20:11;98574.22;;;-0.95;57.26
39051;BME280;24805;55.852;37.644;2023-03-01T23:25:15;98564.34;;;-1.01;57.48
39051;BME280;24805;55.852;37.644;2023-03-01T23:30:17;98593.34;;;-1.06;58.13
39051;BME280;24805;55.852;37.644;2023-03-01T23:35:19;98595.63;;;-1.13;58.03
39051;BME280;24805;55.852;37.644;2023-03-01T23:40:21;98584.63;;;-1.16;58.20
39051;BME280;24805;55.852;37.644;2023-03-01T23:45:23;98583.50;;;-1.23;58.11
39051;BME280;24805;55.852;37.644;2023-03-01T23:50:26;98583.66;;;-1.36;58.46
39051;BME280;24805;55.852;37.644;2023-03-01T23:55:29;98591.78;;;-1.50;59.02
